Observations

86.2 °F / 30.1 °C
NNE at 6 MPH
76%
78.1°F / 25.6 °C
29.85" (1010 mb)
10 mile(s)
clear
2019.11.16 0120 UTC

Observations

Surface


Raw METARs

2019/11/16 01:20
PKWA 160120Z AUTO 03005KT 10SM CLR 30/26 A2985 RMK AO2 T03010256

Translated METAR

Kwajalein, Bucholz AAF, Kwajalein KMR ATOL Airport, Marshall Islands (PKWA) 08-43N 167-44E 2M
Nov 15, 2019 - 08:20 PM EST / 2019.11.16 0120 UTC
Wind: from the NNE (030 degrees) at 6 MPH (5 KT):0
Visibility: 10 mile(s):0
Sky conditions: clear
Temperature: 86.2 F (30.1 C)
Heat index: 98.4 F (36.9 C):1
Dew Point: 78.1 F (25.6 C)
Relative Humidity: 76%
Pressure (altimeter): 29.85 in. Hg (1010 hPa)
ob: PKWA 160120Z AUTO 03005KT 10SM CLR 30/26 A2985 RMK AO2 T03010256
cycle: 1



Upper Air


Latest Skew-T

Skew T Diagram

Latest Data File